| time (UTC) | temp C | wind direction | speed KPH | gust KPH | rain 1hr cm | rain 24hr cm | rain mn cm | humidity % | barometer mb |
| 20260503211327 | 17 | 228 | 3.2 | 11.3 | 0.00 | 0.00 | 0.00 | 58 | 1011.9 |
| 20260503210827 | 17 | 230 | 4.8 | 16.1 | 0.00 | 0.00 | 0.00 | 57 | 1012.0 |
| 20260503205327 | 18 | 214 | 3.2 | 8.0 | 0.00 | 0.00 | 0.00 | 56 | 1011.9 |
| 20260503204826 | 18 | 124 | 1.6 | 9.7 | 0.00 | 0.00 | 0.00 | 57 | 1011.9 |
| 20260503204327 | 18 | 249 | 4.8 | 14.5 | 0.00 | 0.00 | 0.00 | 56 | 1011.9 |
| 20260503203827 | 18 | 249 | 3.2 | 11.3 | 0.00 | 0.00 | 0.00 | 58 | 1011.9 |
| 20260503202827 | 18 | 229 | 6.4 | 19.3 | 0.00 | 0.00 | 0.00 | 55 | 1012.0 |
| 20260503202327 | 18 | 223 | 3.2 | 9.7 | 0.00 | 0.00 | 0.00 | 56 | 1012.0 |
| 20260503201826 | 18 | 257 | 3.2 | 11.3 | 0.00 | 0.00 | 0.00 | 57 | 1012.0 |
| 20260503201326 | 18 | 238 | 4.8 | 12.9 | 0.00 | 0.00 | 0.00 | 57 | 1012.1 |
| 20260503200327 | 18 | 240 | 9.7 | 19.3 | 0.00 | 0.00 | 0.00 | 57 | 1012.2 |
| 20260503195826 | 18 | 267 | 8.0 | 12.9 | 0.00 | 0.00 | 0.00 | 56 | 1012.1 |
| 20260503195326 | 18 | 257 | 6.4 | 12.9 | 0.00 | 0.00 | 0.00 | 57 | 1012.1 |
| 20260503194826 | 18 | 251 | 3.2 | 14.5 | 0.00 | 0.00 | 0.00 | 58 | 1012.1 |
| 20260503194326 | 18 | 240 | 4.8 | 11.3 | 0.00 | 0.00 | 0.00 | 58 | 1012.2 |
| 20260503193826 | 17 | 240 | 8.0 | 19.3 | 0.00 | 0.00 | 0.00 | 57 | 1012.2 |
| 20260503193326 | 17 | 204 | 1.6 | 12.9 | 0.00 | 0.00 | 0.00 | 58 | 1012.3 |
| 20260503192827 | 17 | 234 | 4.8 | 19.3 | 0.00 | 0.00 | 0.00 | 57 | 1012.3 |
| 20260503192327 | 17 | 257 | 1.6 | 9.7 | 0.00 | 0.00 | 0.00 | 59 | 1012.2 |
| 20260503191827 | 17 | 175 | 3.2 | 8.0 | 0.00 | 0.00 | 0.00 | 59 | 1012.3 |
| 20260503191326 | 17 | 230 | 3.2 | 4.8 | 0.00 | 0.00 | 0.00 | 60 | 1012.4 |
| 20260503190327 | 17 | 243 | 4.8 | 11.3 | 0.00 | 0.00 | 0.00 | 59 | 1012.3 |
| 20260503185827 | 17 | 243 | 3.2 | 12.9 | 0.00 | 0.00 | 0.00 | 60 | 1012.3 |
| 20260503185327 | 17 | 267 | 6.4 | 11.3 | 0.00 | 0.00 | 0.00 | 61 | 1012.4 |
| 20260503184828 | 16 | 254 | 8.0 | 12.9 | 0.00 | 0.00 | 0.00 | 60 | 1012.4 |
| 20260503184327 | 16 | 256 | 3.2 | 11.3 | 0.00 | 0.00 | 0.00 | 61 | 1012.4 |
| 20260503183327 | 16 | 201 | 4.8 | 12.9 | 0.00 | 0.00 | 0.00 | 63 | 1012.4 |
| 20260503182826 | 16 | 215 | 4.8 | 12.9 | 0.00 | 0.00 | 0.00 | 63 | 1012.5 |
| 20260503182326 | 16 | 215 | 8.0 | 12.9 | 0.00 | 0.00 | 0.00 | 62 | 1012.5 |
| 20260503181326 | 16 | 235 | 3.2 | 12.9 | 0.00 | 0.00 | 0.00 | 66 | 1012.5 |
| 20260503180326 | 15 | 144 | 1.6 | 11.3 | 0.00 | 0.00 | 0.00 | 68 | 1012.5 |
| 20260503175827 | 15 | 226 | 4.8 | 11.3 | 0.00 | 0.00 | 0.00 | 68 | 1012.5 |
| 20260503175327 | 15 | 198 | 3.2 | 12.9 | 0.00 | 0.00 | 0.00 | 70 | 1012.5 |
| 20260503174826 | 15 | 230 | 3.2 | 8.0 | 0.00 | 0.00 | 0.00 | 72 | 1012.5 |
| 20260503174326 | 15 | 222 | 3.2 | 8.0 | 0.00 | 0.00 | 0.00 | 73 | 1012.5 |
| 20260503173827 | 15 | 170 | 4.8 | 11.3 | 0.00 | 0.00 | 0.00 | 74 | 1012.5 |
| 20260503173327 | 15 | 252 | 3.2 | 11.3 | 0.00 | 0.00 | 0.00 | 74 | 1012.5 |
| 20260503172827 | 15 | 231 | 6.4 | 12.9 | 0.00 | 0.00 | 0.00 | 74 | 1012.5 |
| 20260503172327 | 15 | 232 | 3.2 | 11.3 | 0.00 | 0.00 | 0.00 | 76 | 1012.5 |
| 20260503171827 | 15 | 238 | 1.6 | 9.7 | 0.00 | 0.00 | 0.00 | 78 | 1012.5 |
| 20260503171326 | 15 | 249 | 1.6 | 8.0 | 0.00 | 0.00 | 0.00 | 78 | 1012.5 |
| 20260503170326 | 15 | 244 | 3.2 | 9.7 | 0.00 | 0.00 | 0.00 | 75 | 1012.5 |
| 20260503150826 | 13 | 134 | 3.2 | 8.0 | 0.00 | 0.00 | 0.00 | 78 | 1012.0 |
| 20260503131326 | 12 | 246 | 0.0 | 1.6 | 0.00 | 0.00 | 0.00 | 77 | 1010.8 |
| 20260503130826 | 12 | 248 | 0.0 | 4.8 | 0.00 | 0.00 | 0.00 | 77 | 1010.6 |
| 20260503130327 | 12 | 232 | 0.0 | 1.6 | 0.00 | 0.00 | 0.00 | 77 | 1010.5 |
| 20260503110827 | 13 | 231 | 0.0 | 3.2 | 0.00 | 0.00 | 0.00 | 77 | 1010.5 |
| 20260503110327 | 13 | 256 | 0.0 | 3.2 | 0.00 | 0.00 | 0.00 | 77 | 1010.5 |
| 20260503081326 | 13 | 305 | 1.6 | 3.2 | 0.00 | 0.00 | 0.00 | 74 | 1011.0 |
| 20260503080826 | 13 | 313 | 1.6 | 4.8 | 0.00 | 0.00 | 0.00 | 74 | 1011.1 |
| 20260503080326 | 13 | 342 | 0.0 | 1.6 | 0.00 | 0.00 | 0.00 | 74 | 1011.2 |
| 20260503072826 | 13 | 0 | 0.0 | 3.2 | 0.00 | 0.00 | 0.00 | 74 | 1011.3 |
| 20260503071826 | 13 | 3 | 0.0 | 4.8 | 0.00 | 0.00 | 0.00 | 74 | 1011.3 |
| 20260503071326 | 13 | 31 | 1.6 | 3.2 | 0.00 | 0.00 | 0.00 | 74 | 1011.3 |
| 20260503070826 | 13 | 35 | 1.6 | 4.8 | 0.00 | 0.00 | 0.00 | 73 | 1011.3 |
| 20260503070326 | 13 | 6 | 1.6 | 4.8 | 0.00 | 0.00 | 0.00 | 73 | 1011.3 |
| 20260503060326 | 14 | 89 | 0.0 | 1.6 | 0.00 | 0.00 | 0.00 | 74 | 1011.4 |
| 20260503054826 | 14 | 36 | 3.2 | 8.0 | 0.00 | 0.00 | 0.00 | 73 | 1011.5 |
| 20260503054326 | 14 | 71 | 1.6 | 9.7 | 0.00 | 0.00 | 0.00 | 73 | 1011.5 |
| 20260503053826 | 14 | 94 | 1.6 | 9.7 | 0.00 | 0.00 | 0.00 | 72 | 1011.6 |
| 20260503053326 | 14 | 37 | 1.6 | 4.8 | 0.00 | 0.00 | 0.00 | 72 | 1011.6 |
| 20260503052827 | 14 | 17 | 3.2 | 8.0 | 0.00 | 0.00 | 0.00 | 72 | 1011.6 |
| 20260503052326 | 14 | 67 | 1.6 | 4.8 | 0.00 | 0.00 | 0.00 | 72 | 1011.7 |
| 20260503050826 | 14 | 61 | 1.6 | 4.8 | 0.00 | 0.00 | 0.00 | 73 | 1011.8 |
| 20260503050326 | 14 | 60 | 1.6 | 4.8 | 0.00 | 0.00 | 0.00 | 72 | 1011.7 |
| 20260503045826 | 14 | 40 | 1.6 | 4.8 | 0.00 | 0.00 | 0.00 | 72 | 1011.7 |
| 20260503045326 | 14 | 7 | 1.6 | 4.8 | 0.00 | 0.00 | 0.00 | 71 | 1011.6 |
| 20260503044826 | 14 | 328 | 1.6 | 4.8 | 0.00 | 0.00 | 0.00 | 71 | 1011.5 |
| 20260503044326 | 14 | 54 | 1.6 | 3.2 | 0.00 | 0.00 | 0.00 | 71 | 1011.6 |
| 20260503043826 | 14 | 0 | 0.0 | 3.2 | 0.00 | 0.00 | 0.00 | 71 | 1011.5 |
| 20260503043326 | 14 | 33 | 3.2 | 9.7 | 0.00 | 0.00 | 0.00 | 71 | 1011.4 |
| 20260503042326 | 15 | 68 | 1.6 | 4.8 | 0.00 | 0.00 | 0.00 | 70 | 1011.4 |
| 20260503041826 | 15 | 36 | 0.0 | 3.2 | 0.00 | 0.00 | 0.00 | 70 | 1011.4 |
| 20260503041326 | 15 | 29 | 1.6 | 4.8 | 0.00 | 0.00 | 0.00 | 69 | 1011.3 |
| 20260503040826 | 15 | 358 | 3.2 | 4.8 | 0.00 | 0.00 | 0.00 | 69 | 1011.3 |
| 20260503040326 | 15 | 2 | 1.6 | 9.7 | 0.00 | 0.00 | 0.00 | 69 | 1011.3 |
| 20260503035827 | 15 | 357 | 3.2 | 9.7 | 0.00 | 0.00 | 0.00 | 68 | 1011.2 |
| 20260503035326 | 15 | 23 | 1.6 | 4.8 | 0.00 | 0.00 | 0.00 | 68 | 1011.1 |
| 20260503034826 | 15 | 354 | 1.6 | 4.8 | 0.00 | 0.00 | 0.00 | 67 | 1011.1 |
| 20260503034326 | 15 | 30 | 1.6 | 4.8 | 0.00 | 0.00 | 0.00 | 67 | 1010.9 |
| 20260503033826 | 15 | 6 | 1.6 | 4.8 | 0.00 | 0.00 | 0.00 | 67 | 1010.9 |
| 20260503033326 | 15 | 7 | 1.6 | 8.0 | 0.00 | 0.00 | 0.00 | 67 | 1010.9 |
| 20260503032826 | 15 | 52 | 4.8 | 9.7 | 0.00 | 0.00 | 0.00 | 67 | 1010.8 |
| 20260503032326 | 15 | 44 | 4.8 | 11.3 | 0.00 | 0.00 | 0.00 | 67 | 1010.8 |
| 20260503031826 | 15 | 28 | 3.2 | 9.7 | 0.00 | 0.00 | 0.00 | 67 | 1010.8 |
| 20260503031326 | 16 | 31 | 1.6 | 9.7 | 0.00 | 0.00 | 0.00 | 67 | 1010.8 |
| 20260503030826 | 16 | 66 | 3.2 | 9.7 | 0.00 | 0.00 | 0.00 | 66 | 1010.7 |
| 20260503030326 | 16 | 55 | 3.2 | 11.3 | 0.00 | 0.00 | 0.00 | 66 | 1010.6 |
| 20260503025826 | 16 | 44 | 4.8 | 11.3 | 0.00 | 0.00 | 0.00 | 66 | 1010.5 |
| 20260503025326 | 16 | 14 | 3.2 | 11.3 | 0.00 | 0.00 | 0.00 | 66 | 1010.5 |
| 20260503024826 | 16 | 54 | 8.0 | 12.9 | 0.00 | 0.00 | 0.00 | 65 | 1010.4 |
| 20260503024326 | 16 | 9 | 1.6 | 4.8 | 0.00 | 0.00 | 0.00 | 65 | 1010.4 |
| 20260503023827 | 16 | 41 | 3.2 | 11.3 | 0.00 | 0.00 | 0.00 | 65 | 1010.4 |
| 20260503023326 | 16 | 41 | 4.8 | 11.3 | 0.00 | 0.00 | 0.00 | 65 | 1010.3 |
| 20260503022826 | 16 | 13 | 4.8 | 9.7 | 0.00 | 0.00 | 0.00 | 66 | 1010.3 |
| 20260503022326 | 17 | 40 | 4.8 | 11.3 | 0.00 | 0.00 | 0.00 | 66 | 1010.2 |
| 20260503021826 | 17 | 44 | 6.4 | 11.3 | 0.00 | 0.00 | 0.00 | 66 | 1010.1 |
| 20260503021326 | 17 | 28 | 4.8 | 16.1 | 0.00 | 0.00 | 0.00 | 66 | 1010.2 |
| 20260503020326 | 17 | 26 | 4.8 | 11.3 | 0.00 | 0.00 | 0.00 | 65 | 1010.2 |
| 20260503015826 | 17 | 9 | 3.2 | 9.7 | 0.00 | 0.00 | 0.00 | 65 | 1010.2 |
| 20260503015326 | 17 | 53 | 3.2 | 9.7 | 0.00 | 0.00 | 0.00 | 65 | 1010.2 |
| 20260503014826 | 17 | 38 | 3.2 | 11.3 | 0.00 | 0.00 | 0.00 | 65 | 1010.2 |
| 20260503014326 | 17 | 15 | 4.8 | 12.9 | 0.00 | 0.00 | 0.00 | 65 | 1010.2 |
| 20260503013827 | 17 | 57 | 3.2 | 11.3 | 0.00 | 0.00 | 0.00 | 64 | 1010.2 |
| 20260503013326 | 17 | 36 | 4.8 | 12.9 | 0.00 | 0.00 | 0.00 | 64 | 1010.3 |
| 20260503012827 | 17 | 25 | 4.8 | 14.5 | 0.00 | 0.00 | 0.00 | 64 | 1010.3 |
| 20260503012326 | 18 | 35 | 6.4 | 12.9 | 0.00 | 0.00 | 0.00 | 64 | 1010.2 |
| 20260503011826 | 18 | 56 | 6.4 | 12.9 | 0.00 | 0.00 | 0.00 | 64 | 1010.2 |
| 20260503011326 | 18 | 53 | 6.4 | 12.9 | 0.00 | 0.00 | 0.00 | 63 | 1010.3 |
| 20260503010826 | 18 | 29 | 3.2 | 12.9 | 0.00 | 0.00 | 0.00 | 62 | 1010.2 |
| 20260503010326 | 18 | 357 | 4.8 | 11.3 | 0.00 | 0.00 | 0.00 | 62 | 1010.2 |
| 20260503005326 | 18 | 22 | 8.0 | 19.3 | 0.00 | 0.00 | 0.00 | 62 | 1010.2 |
| 20260503004826 | 18 | 18 | 4.8 | 16.1 | 0.00 | 0.00 | 0.00 | 61 | 1010.2 |
| 20260503003826 | 19 | 345 | 4.8 | 11.3 | 0.00 | 0.00 | 0.00 | 60 | 1010.2 |
| 20260503003326 | 19 | 5 | 4.8 | 11.3 | 0.00 | 0.00 | 0.00 | 60 | 1010.2 |
| 20260503002826 | 19 | 36 | 8.0 | 12.9 | 0.00 | 0.00 | 0.00 | 60 | 1010.2 |
| 20260503002326 | 19 | 19 | 4.8 | 11.3 | 0.00 | 0.00 | 0.00 | 60 | 1010.2 |
| 20260503001825 | 19 | 28 | 4.8 | 20.9 | 0.00 | 0.00 | 0.00 | 60 | 1010.2 |
| 20260503001325 | 19 | 33 | 4.8 | 16.1 | 0.00 | 0.00 | 0.00 | 60 | 1010.2 |
| 20260503000826 | 19 | 12 | 1.6 | 11.3 | 0.00 | 0.00 | 0.00 | 60 | 1010.2 |
| 20260503000326 | 19 | 345 | 8.0 | 12.9 | 0.00 | 0.00 | 0.00 | 60 | 1010.2 |
| 20260502235826 | 20 | 30 | 4.8 | 9.7 | 0.00 | 0.00 | 0.00 | 60 | 1010.2 |
| 20260502235326 | 20 | 352 | 4.8 | 16.1 | 0.00 | 0.00 | 0.00 | 60 | 1010.3 |
| 20260502234826 | 20 | 41 | 4.8 | 11.3 | 0.00 | 0.00 | 0.00 | 60 | 1010.2 |
| 20260502233826 | 20 | 16 | 4.8 | 11.3 | 0.00 | 0.00 | 0.00 | 60 | 1010.3 |
| 20260502233326 | 20 | 6 | 8.0 | 16.1 | 0.00 | 0.00 | 0.00 | 59 | 1010.3 |
| 20260502232826 | 20 | 340 | 4.8 | 14.5 | 0.00 | 0.00 | 0.00 | 59 | 1010.4 |
| 20260502232326 | 20 | 18 | 4.8 | 9.7 | 0.00 | 0.00 | 0.00 | 59 | 1010.4 |
| 20260502231826 | 20 | 35 | 3.2 | 19.3 | 0.00 | 0.00 | 0.00 | 59 | 1010.4 |
| 20260502231326 | 20 | 23 | 6.4 | 16.1 | 0.00 | 0.00 | 0.00 | 59 | 1010.5 |
| 20260502230826 | 20 | 7 | 4.8 | 16.1 | 0.00 | 0.00 | 0.00 | 59 | 1010.5 |
| 20260502230326 | 20 | 343 | 6.4 | 12.9 | 0.00 | 0.00 | 0.00 | 59 | 1010.6 |
| 20260502225826 | 20 | 7 | 6.4 | 16.1 | 0.00 | 0.00 | 0.00 | 59 | 1010.7 |
| 20260502225326 | 20 | 7 | 3.2 | 11.3 | 0.00 | 0.00 | 0.00 | 59 | 1010.7 |
| 20260502224826 | 20 | 317 | 4.8 | 12.9 | 0.00 | 0.00 | 0.00 | 58 | 1010.8 |
| 20260502224326 | 20 | 18 | 8.0 | 19.3 | 0.00 | 0.00 | 0.00 | 58 | 1010.8 |
| 20260502223826 | 20 | 27 | 6.4 | 12.9 | 0.00 | 0.00 | 0.00 | 59 | 1010.9 |
| 20260502222826 | 20 | 335 | 4.8 | 12.9 | 0.00 | 0.00 | 0.00 | 59 | 1011.0 |
| 20260502222326 | 20 | 0 | 6.4 | 14.5 | 0.00 | 0.00 | 0.00 | 59 | 1011.1 |
| 20260502220827 | 20 | 50 | 6.4 | 12.9 | 0.00 | 0.00 | 0.00 | 60 | 1011.3 |
| 20260502220326 | 20 | 4 | 3.2 | 8.0 | 0.00 | 0.00 | 0.00 | 60 | 1011.3 |
| 20260502215826 | 20 | 345 | 8.0 | 12.9 | 0.00 | 0.00 | 0.00 | 60 | 1011.4 |
| 20260502215326 | 20 | 354 | 9.7 | 16.1 | 0.00 | 0.00 | 0.00 | 59 | 1011.4 |
| 20260502214826 | 20 | 343 | 4.8 | 11.3 | 0.00 | 0.00 | 0.00 | 59 | 1011.5 |
| 20260502214326 | 20 | 327 | 4.8 | 16.1 | 0.00 | 0.00 | 0.00 | 59 | 1011.6 |
| 20260502213826 | 20 | 334 | 6.4 | 12.9 | 0.00 | 0.00 | 0.00 | 58 | 1011.6 |
| 20260502213326 | 20 | 4 | 8.0 | 19.3 | 0.00 | 0.00 | 0.00 | 58 | 1011.6 |
| 20260502212826 | 21 | 29 | 6.4 | 14.5 | 0.00 | 0.00 | 0.00 | 59 | 1011.7 |
| 20260502212326 | 21 | 323 | 3.2 | 11.3 | 0.00 | 0.00 | 0.00 | 58 | 1011.6 |
| 20260502211826 | 21 | 292 | 8.0 | 11.3 | 0.00 | 0.00 | 0.00 | 57 | 1011.7 |